Ana Sayfa
METAR-TAF:

METAR-TAF

Havaalanları :

Şanghay Pudong Uluslararası Havalimanı

Şanghay-Pudong, Çin

Enlem: 31-07N, Boylam: 121-46E, yükseklik: 4 m

Güncel hava durumu gözlemi

Rapor saat 17:00 UTC de 19 dakika önce yapıldı.
Rüzgar batı/güneybatıdan 2 kt
Sıcaklık 10°C
Nem 93%
Basınç 1024 hPa
Görüş mesafesi: 3000 m
600 ft yükseklikte parçalı çok bulutlu
3300 ft yükseklikte çok bulutlu
hafif yağmur, Pus

METAR: ZSPD 151700Z 24001MPS 3000 -RA BR BKN006 OVC033 10/09 Q1024 BECMG TL1800 2500 -RA BR BKN004 OVC033

Saat: 01:19 (17:19 UTC)

Tahmin

Rapor saat 09:15 UTC de 8 saat ve 4 dakika önce yapıldı.
Ayın 15'si saat 12 UTC'den ayın 16'si saat 12 UTC'ye kadar geçerli Tahmin
Rüzgar doğu/güneydoğudan 8 kt
Görüş mesafesi: 6000 m
1000 ft yükseklikte parçalı çok bulutlu
Dönüşüyor
ayın 15'si saat 19 UTC'den ayın 15'si saat 20 UTC'ye kadar
Rüzgar batı/kuzeybatıdan 12 kt

TAF: ZSPD 150915Z 1512/1612 12004MPS 6000 BKN010 TX11/1606Z TN06/1520Z BECMG 1519/1520 30006MPS

4.000'den fazla havaalanı için hava durumu gözlemleri ve tahminleri (METAR ve TAF raporları).

Kullanılabilir istasyonlar harita üzerinde sarı ve kırmızı noktalarla gösterilir.

İstasyonun adını görmek için fareyi noktanın üzerinde gezdirin.

Sonrasında hava gözlem ve tahminlerini görmek için tıklayın.

Haritayı değiştirmek için: yaklaştırmak için siyah artı işaretli yeşil düğmeye ve uzaklaştırmak için de eksi işaretli düğmeye hızla tıklayın; bitişik haritalar için yeşil okları kullanın.


METAR-TAF: